createdAt,value
2023-04-26T00:02:04.722Z,100.00
2023-04-26T00:04:32.347Z,100.00
2023-04-26T00:07:00.653Z,100.00
2023-04-26T00:09:27.811Z,100.00
2023-04-26T00:11:55.272Z,100.00
2023-04-26T00:14:22.377Z,100.00
2023-04-26T00:16:49.594Z,100.00
2023-04-26T00:19:18.246Z,100.00
2023-04-26T00:21:45.446Z,100.00
2023-04-26T00:24:12.565Z,100.00
2023-04-26T00:26:39.970Z,100.00
2023-04-26T00:29:07.272Z,100.00
2023-04-26T00:31:34.647Z,100.00
2023-04-26T00:34:02.051Z,100.00
2023-04-26T00:36:29.252Z,100.00
2023-04-26T00:38:56.471Z,100.00
2023-04-26T00:41:24.414Z,100.00
2023-04-26T00:43:51.589Z,100.00
2023-04-26T00:46:18.747Z,100.00
2023-04-26T00:48:47.180Z,100.00
2023-04-26T00:51:14.641Z,100.00
2023-04-26T00:53:42.319Z,100.00
2023-04-26T00:56:10.336Z,100.00
2023-04-26T00:58:38.143Z,100.00
2023-04-26T01:01:05.468Z,100.00
2023-04-26T01:03:33.041Z,100.00
2023-04-26T01:06:01.122Z,100.00
2023-04-26T01:08:28.305Z,100.00
2023-04-26T01:10:58.843Z,100.00
2023-04-26T01:13:26.829Z,100.00
2023-04-26T01:15:54.377Z,100.00
2023-04-26T01:18:21.793Z,100.00
2023-04-26T01:20:52.196Z,100.00
2023-04-26T01:23:19.397Z,100.00
2023-04-26T01:25:46.935Z,100.00
2023-04-26T01:28:14.033Z,100.00
2023-04-26T01:30:41.182Z,100.00
2023-04-26T01:33:08.619Z,100.00
2023-04-26T01:35:36.001Z,100.00
2023-04-26T01:38:04.478Z,100.00
2023-04-26T01:40:32.946Z,100.00
2023-04-26T01:43:00.758Z,100.00
2023-04-26T01:45:30.840Z,100.00
2023-04-26T01:48:12.797Z,100.00
2023-04-26T01:50:40.386Z,100.00
2023-04-26T01:53:07.527Z,100.00
2023-04-26T01:55:36.026Z,100.00
2023-04-26T01:58:03.444Z,100.00
2023-04-26T02:00:30.717Z,100.00
2023-04-26T02:02:58.185Z,100.00
2023-04-26T02:05:25.523Z,100.00
2023-04-26T02:07:52.714Z,100.00
2023-04-26T02:10:21.017Z,100.00
2023-04-26T02:12:48.202Z,100.00
2023-04-26T02:15:15.458Z,100.00
2023-04-26T02:17:42.841Z,100.00
2023-04-26T02:20:10.531Z,100.00
2023-04-26T02:22:37.778Z,100.00
2023-04-26T02:25:06.933Z,100.00
2023-04-26T02:27:38.926Z,100.00
2023-04-26T02:30:06.870Z,100.00
2023-04-26T02:32:34.556Z,100.00
2023-04-26T02:35:01.676Z,100.00
2023-04-26T02:37:28.749Z,100.00
2023-04-26T02:39:56.337Z,100.00
2023-04-26T02:42:24.805Z,100.00
2023-04-26T02:44:52.214Z,100.00
2023-04-26T02:47:19.776Z,100.00
2023-04-26T02:49:48.236Z,100.00
2023-04-26T02:52:15.431Z,100.00
2023-04-26T02:54:42.901Z,100.00
2023-04-26T02:57:10.122Z,100.00
2023-04-26T02:59:37.302Z,100.00
2023-04-26T03:02:04.791Z,100.00
2023-04-26T03:04:34.291Z,100.00
2023-04-26T03:07:02.872Z,100.00
2023-04-26T03:09:31.055Z,100.00
2023-04-26T03:11:58.821Z,100.00
2023-04-26T03:14:26.675Z,100.00
2023-04-26T03:16:55.055Z,100.00
2023-04-26T03:19:22.326Z,100.00
2023-04-26T03:21:50.150Z,100.00
2023-04-26T03:24:17.990Z,100.00
2023-04-26T03:26:45.771Z,100.00
2023-04-26T03:29:13.344Z,100.00
2023-04-26T03:31:40.783Z,100.00
2023-04-26T03:34:08.201Z,100.00
2023-04-26T03:36:35.540Z,100.00
2023-04-26T03:39:05.764Z,100.00
2023-04-26T03:41:33.884Z,100.00
2023-04-26T03:44:01.795Z,100.00
2023-04-26T03:46:29.434Z,100.00
2023-04-26T03:48:56.673Z,100.00
2023-04-26T03:51:25.102Z,100.00
2023-04-26T03:53:52.624Z,100.00
2023-04-26T03:56:19.865Z,100.00
2023-04-26T03:58:48.252Z,100.00
2023-04-26T04:01:15.997Z,100.00
2023-04-26T04:03:43.661Z,100.00
2023-04-26T04:06:10.913Z,100.00
2023-04-26T04:08:38.401Z,100.00
2023-04-26T04:11:06.170Z,100.00
2023-04-26T04:13:36.786Z,100.00
2023-04-26T04:16:04.733Z,100.00
2023-04-26T04:18:32.241Z,100.00
2023-04-26T04:20:59.542Z,100.00
2023-04-26T04:23:28.100Z,100.00
2023-04-26T04:25:55.724Z,100.00
2023-04-26T04:28:23.349Z,100.00
2023-04-26T04:30:50.976Z,100.00
2023-04-26T04:33:19.289Z,100.00
2023-04-26T04:35:46.853Z,100.00
2023-04-26T04:38:14.419Z,100.00
2023-04-26T04:40:42.347Z,100.00
2023-04-26T04:43:10.642Z,100.00
2023-04-26T04:45:38.992Z,100.00
2023-04-26T04:48:06.816Z,100.00
2023-04-26T04:50:38.765Z,100.00
2023-04-26T04:53:06.191Z,100.00
2023-04-26T04:55:33.874Z,100.00
2023-04-26T04:58:01.803Z,100.00
2023-04-26T05:00:29.750Z,100.00
2023-04-26T05:02:58.029Z,100.00
2023-04-26T05:05:25.558Z,100.00
2023-04-26T05:07:53.527Z,100.00
2023-04-26T05:10:20.802Z,100.00
2023-04-26T05:12:47.957Z,100.00
2023-04-26T05:15:15.604Z,100.00
2023-04-26T05:17:42.834Z,100.00
2023-04-26T05:20:11.383Z,100.00
2023-04-26T05:22:39.984Z,100.00
2023-04-26T05:25:08.556Z,98.68
2023-04-26T05:27:37.941Z,96.61
2023-04-26T05:30:06.813Z,96.28
2023-04-26T05:32:34.165Z,94.65
2023-04-26T05:35:01.935Z,94.04
2023-04-26T05:37:31.750Z,94.10
2023-04-26T05:39:59.110Z,91.19
2023-04-26T05:42:26.888Z,83.58
2023-04-26T05:44:59.014Z,65.26
2023-04-26T05:47:27.951Z,54.31
2023-04-26T05:49:55.421Z,48.99
2023-04-26T05:52:22.931Z,49.28
2023-04-26T05:54:50.366Z,45.71
2023-04-26T05:57:19.095Z,42.97
2023-04-26T05:59:46.828Z,39.71
2023-04-26T06:02:14.237Z,35.89
2023-04-26T06:04:41.937Z,34.77
2023-04-26T06:07:10.311Z,37.28
2023-04-26T06:09:37.495Z,37.54
2023-04-26T06:12:05.423Z,36.73
2023-04-26T06:14:33.737Z,36.98
2023-04-26T06:17:01.587Z,35.01
2023-04-26T06:19:29.409Z,33.05
2023-04-26T06:21:57.365Z,32.69
2023-04-26T06:24:26.140Z,32.90
2023-04-26T06:26:53.759Z,36.13
2023-04-26T06:29:21.951Z,34.38
2023-04-26T06:31:49.224Z,34.38
2023-04-26T06:34:18.312Z,35.82
2023-04-26T06:36:46.228Z,34.60
2023-04-26T06:39:13.981Z,39.42
2023-04-26T06:41:43.576Z,41.74
2023-04-26T06:44:11.462Z,40.33
2023-04-26T06:46:42.529Z,36.21
2023-04-26T06:49:11.642Z,36.53
2023-04-26T06:51:38.975Z,36.71
2023-04-26T06:54:06.433Z,36.80
2023-04-26T06:56:33.917Z,39.24
2023-04-26T06:59:06.093Z,38.86
2023-04-26T07:01:35.296Z,36.40
2023-04-26T07:04:10.942Z,38.53
2023-04-26T07:06:39.539Z,40.42
2023-04-26T07:09:07.862Z,38.70
2023-04-26T07:11:35.050Z,36.98
2023-04-26T07:14:02.597Z,37.41
2023-04-26T07:16:30.019Z,36.88
2023-04-26T07:19:01.159Z,38.43
2023-04-26T07:21:28.619Z,36.36
2023-04-26T07:23:56.555Z,36.48
2023-04-26T07:26:24.529Z,35.88
2023-04-26T07:28:52.662Z,36.64
2023-04-26T07:31:20.700Z,35.53
2023-04-26T07:33:48.010Z,35.10
2023-04-26T07:36:15.471Z,34.64
2023-04-26T07:38:42.934Z,34.89
2023-04-26T07:41:10.294Z,37.24
2023-04-26T07:43:37.911Z,35.78
2023-04-26T07:46:05.303Z,36.61
2023-04-26T07:48:32.863Z,35.99
2023-04-26T07:51:13.538Z,35.22
2023-04-26T07:53:41.290Z,36.42
2023-04-26T07:56:09.311Z,36.97
2023-04-26T07:58:37.517Z,36.69
2023-04-26T08:01:05.823Z,36.97
2023-04-26T08:03:33.696Z,38.01
2023-04-26T08:06:02.052Z,37.97
2023-04-26T08:08:29.585Z,37.54
2023-04-26T08:10:57.050Z,37.47
2023-04-26T08:13:26.377Z,36.71
2023-04-26T08:15:55.772Z,37.02
2023-04-26T08:18:23.215Z,38.78
2023-04-26T08:20:50.590Z,38.04
2023-04-26T08:23:19.676Z,37.32
2023-04-26T08:25:47.969Z,36.66
2023-04-26T08:28:15.977Z,36.50
2023-04-26T08:30:43.706Z,39.30
2023-04-26T08:33:11.620Z,39.81
2023-04-26T08:35:38.890Z,39.74
2023-04-26T08:38:06.079Z,38.63
2023-04-26T08:40:33.999Z,38.75
2023-04-26T08:43:01.473Z,39.48
2023-04-26T08:45:28.927Z,38.52
2023-04-26T08:48:01.523Z,39.63
2023-04-26T08:50:31.413Z,41.36
2023-04-26T08:52:58.909Z,40.86
2023-04-26T08:55:26.183Z,40.33
2023-04-26T08:57:53.384Z,37.81
2023-04-26T09:00:21.579Z,37.25
2023-04-26T09:02:51.505Z,36.40
2023-04-26T09:05:24.705Z,36.52
2023-04-26T09:08:00.894Z,36.07
2023-04-26T09:10:28.410Z,36.62
2023-04-26T09:12:56.628Z,37.66
2023-04-26T09:15:25.273Z,36.90
2023-04-26T09:17:52.960Z,36.91
2023-04-26T09:20:23.128Z,36.22
2023-04-26T09:22:53.922Z,36.85
2023-04-26T09:25:30.101Z,38.27
2023-04-26T09:27:58.231Z,38.04
2023-04-26T09:30:26.342Z,38.21
2023-04-26T09:33:05.091Z,38.46
2023-04-26T09:35:35.171Z,36.92
2023-04-26T09:38:09.601Z,35.89
2023-04-26T09:40:43.358Z,35.88
2023-04-26T09:43:23.570Z,34.91
2023-04-26T09:45:52.001Z,35.73
2023-04-26T09:48:23.573Z,35.41
2023-04-26T09:50:55.995Z,35.93
2023-04-26T09:53:38.428Z,37.38
2023-04-26T09:56:09.885Z,36.70
2023-04-26T09:58:38.821Z,37.31
2023-04-26T10:01:08.258Z,37.07
2023-04-26T10:03:37.338Z,35.40
2023-04-26T10:06:05.178Z,36.64
2023-04-26T10:08:33.323Z,37.74
2023-04-26T10:11:04.260Z,37.72
2023-04-26T10:13:35.227Z,37.68
2023-04-26T10:16:04.187Z,37.66
2023-04-26T10:18:32.138Z,38.03
2023-04-26T10:21:05.587Z,37.13
2023-04-26T10:23:33.535Z,36.83
2023-04-26T10:26:01.307Z,37.21
2023-04-26T10:29:02.681Z,38.11
2023-04-26T10:32:02.007Z,38.78
2023-04-26T10:34:33.783Z,38.78
2023-04-26T10:37:13.644Z,38.36
2023-04-26T10:39:42.722Z,39.58
2023-04-26T10:42:36.209Z,37.18
2023-04-26T10:45:42.972Z,37.37
2023-04-26T10:48:30.432Z,38.37
2023-04-26T10:51:12.036Z,37.82
2023-04-26T10:53:45.673Z,38.01
2023-04-26T10:56:33.720Z,37.50
2023-04-26T10:59:22.526Z,37.08
2023-04-26T11:01:55.249Z,37.35
2023-04-26T11:04:22.862Z,37.19
2023-04-26T11:06:54.793Z,37.07
2023-04-26T11:09:39.736Z,38.13
2023-04-26T11:12:12.354Z,36.80
2023-04-26T11:14:41.916Z,36.12
2023-04-26T11:17:10.105Z,35.22
2023-04-26T11:19:37.710Z,35.33
2023-04-26T11:22:07.626Z,35.67
2023-04-26T11:24:41.877Z,36.27
2023-04-26T11:27:13.172Z,35.25
2023-04-26T11:29:40.827Z,34.24
2023-04-26T11:32:08.659Z,34.06
2023-04-26T11:34:38.262Z,34.88
2023-04-26T11:37:07.119Z,34.60
2023-04-26T11:39:35.718Z,33.67
2023-04-26T11:42:07.467Z,32.39
2023-04-26T11:44:35.668Z,34.36
2023-04-26T11:47:06.802Z,33.35
2023-04-26T11:49:36.505Z,33.19
2023-04-26T11:52:05.311Z,32.71
2023-04-26T11:54:34.217Z,31.84
2023-04-26T11:57:03.176Z,31.38
2023-04-26T11:59:31.152Z,32.46
2023-04-26T12:01:58.911Z,33.64
2023-04-26T12:04:31.375Z,33.69
2023-04-26T12:07:02.045Z,33.34
2023-04-26T12:09:32.667Z,35.07
2023-04-26T12:12:02.238Z,34.66
2023-04-26T12:14:34.227Z,35.02
2023-04-26T12:17:03.609Z,33.72
2023-04-26T12:19:36.837Z,33.78
2023-04-26T12:22:05.944Z,33.97
2023-04-26T12:24:35.023Z,34.46
2023-04-26T12:27:04.435Z,34.03
2023-04-26T12:29:32.212Z,34.14
2023-04-26T12:32:00.622Z,34.23
2023-04-26T12:38:00.797Z,32.35
2023-04-26T12:40:29.400Z,33.26
2023-04-26T12:42:57.431Z,33.80
2023-04-26T12:45:27.167Z,35.32
2023-04-26T12:47:55.315Z,35.59
2023-04-26T12:50:22.797Z,35.91
2023-04-26T12:52:50.525Z,35.62
2023-04-26T12:55:18.865Z,35.17
2023-04-26T12:57:46.589Z,34.71
2023-04-26T13:00:16.133Z,34.36
2023-04-26T13:02:44.189Z,33.62
2023-04-26T13:05:12.085Z,35.37
2023-04-26T13:07:41.089Z,35.41
2023-04-26T13:10:12.653Z,35.56
2023-04-26T13:12:40.817Z,35.51
2023-04-26T13:15:09.054Z,35.08
2023-04-26T13:17:37.751Z,34.66
2023-04-26T13:20:07.117Z,34.82
2023-04-26T13:22:34.813Z,35.66
2023-04-26T13:25:02.516Z,35.78
2023-04-26T13:27:31.666Z,36.29
2023-04-26T13:29:59.305Z,35.63
2023-04-26T13:32:26.900Z,35.75
2023-04-26T13:34:55.118Z,35.42
2023-04-26T13:37:23.979Z,34.88
2023-04-26T13:39:51.586Z,34.24
2023-04-26T13:42:18.939Z,35.58
2023-04-26T13:44:46.431Z,35.59
2023-04-26T13:47:14.087Z,36.47
2023-04-26T13:53:12.180Z,35.89
2023-04-26T13:58:58.479Z,35.67
2023-04-26T14:01:26.451Z,36.29
2023-04-26T14:03:55.884Z,36.66
2023-04-26T14:06:23.864Z,36.08
2023-04-26T14:08:51.855Z,36.63
2023-04-26T14:11:19.470Z,36.23
2023-04-26T14:13:47.000Z,35.71
2023-04-26T14:16:14.297Z,36.27
2023-04-26T14:18:45.264Z,37.29
2023-04-26T14:21:12.916Z,36.49
2023-04-26T14:23:40.598Z,36.83
2023-04-26T14:26:08.713Z,35.99
2023-04-26T14:28:36.705Z,34.96
2023-04-26T14:31:04.149Z,35.30
2023-04-26T14:33:32.263Z,35.29
2023-04-26T14:35:59.637Z,35.94
2023-04-26T14:38:27.021Z,35.23
2023-04-26T14:40:54.672Z,35.18
2023-04-26T14:43:21.914Z,35.36
2023-04-26T14:45:49.252Z,35.34
2023-04-26T14:48:17.246Z,35.61
2023-04-26T14:54:15.735Z,36.91
2023-04-26T15:10:28.931Z,36.10
2023-04-26T15:12:56.663Z,35.78
2023-04-26T15:15:24.683Z,36.41
2023-04-26T15:17:52.231Z,35.20
2023-04-26T15:20:20.035Z,34.02
2023-04-26T15:22:47.283Z,33.64
2023-04-26T15:25:14.591Z,33.52
2023-04-26T15:27:42.294Z,34.72
2023-04-26T15:30:10.492Z,36.12
2023-04-26T15:32:38.524Z,37.28
2023-04-26T15:35:07.595Z,37.85
2023-04-26T15:37:37.348Z,38.69
2023-04-26T15:40:06.305Z,38.16
2023-04-26T15:42:33.866Z,38.81
2023-04-26T15:45:01.467Z,39.15
2023-04-26T15:47:28.878Z,39.46
2023-04-26T15:50:01.832Z,39.14
2023-04-26T15:52:29.333Z,39.23
2023-04-26T15:54:56.944Z,39.11
2023-04-26T15:57:24.128Z,39.90
2023-04-26T15:59:51.741Z,39.95
2023-04-26T16:02:19.543Z,39.42
2023-04-26T16:04:47.387Z,38.87
2023-04-26T16:07:14.990Z,38.50
2023-04-26T16:09:42.291Z,37.88
2023-04-26T16:12:09.939Z,38.79
2023-04-26T16:14:37.237Z,37.30
2023-04-26T16:17:05.294Z,37.03
2023-04-26T16:19:32.854Z,37.21
2023-04-26T16:22:00.322Z,37.07
2023-04-26T16:24:27.750Z,37.47
2023-04-26T16:26:55.550Z,37.66
2023-04-26T16:29:23.156Z,37.30
2023-04-26T16:31:50.667Z,37.87
2023-04-26T16:34:18.434Z,37.84
2023-04-26T16:36:46.063Z,38.73
2023-04-26T16:39:15.757Z,39.04
2023-04-26T16:41:43.791Z,39.67
2023-04-26T16:44:11.342Z,40.31
2023-04-26T16:46:38.700Z,40.35
2023-04-26T16:49:09.681Z,40.59
2023-04-26T16:51:37.756Z,40.61
2023-04-26T16:54:05.470Z,40.66
2023-04-26T16:56:33.324Z,41.10
2023-04-26T16:59:00.571Z,40.86
2023-04-26T17:01:28.425Z,40.33
2023-04-26T17:03:57.235Z,39.81
2023-04-26T17:06:24.886Z,40.35
2023-04-26T17:08:53.052Z,40.20
2023-04-26T17:14:51.155Z,40.18
2023-04-26T17:17:19.615Z,40.38
2023-04-26T17:19:47.006Z,40.63
2023-04-26T17:22:14.620Z,40.13
2023-04-26T17:24:42.287Z,39.98
2023-04-26T17:27:09.725Z,40.29
2023-04-26T17:29:37.200Z,41.01
2023-04-26T17:32:09.574Z,41.16
2023-04-26T17:34:38.928Z,40.63
2023-04-26T17:37:06.950Z,41.35
2023-04-26T17:39:34.725Z,41.22
2023-04-26T17:42:03.229Z,41.72
2023-04-26T17:44:31.749Z,42.27
2023-04-26T17:47:00.049Z,42.54
2023-04-26T17:49:29.522Z,42.21
2023-04-26T17:51:57.172Z,43.00
2023-04-26T17:54:24.666Z,41.90
2023-04-26T17:56:52.359Z,41.39
2023-04-26T17:59:20.738Z,41.85
2023-04-26T18:01:48.249Z,41.87
2023-04-26T18:04:16.518Z,42.66
2023-04-26T18:06:44.937Z,42.83
2023-04-26T18:09:12.894Z,42.65
2023-04-26T18:11:40.978Z,42.42
2023-04-26T18:14:08.854Z,43.61
2023-04-26T18:16:37.819Z,43.29
2023-04-26T18:19:05.964Z,44.08
2023-04-26T18:21:33.440Z,44.43
2023-04-26T18:24:01.416Z,44.41
2023-04-26T18:26:33.120Z,44.65
2023-04-26T18:29:03.156Z,44.82
2023-04-26T18:31:34.083Z,44.98
2023-04-26T18:34:01.769Z,45.56
2023-04-26T18:36:32.038Z,45.83
2023-04-26T18:39:01.375Z,45.46
2023-04-26T18:41:28.933Z,45.73
2023-04-26T18:43:57.435Z,46.37
2023-04-26T18:46:25.378Z,46.85
2023-04-26T18:48:53.749Z,46.73
2023-04-26T18:51:22.262Z,46.99
2023-04-26T18:53:51.210Z,47.46
2023-04-26T18:56:19.231Z,47.93
2023-04-26T18:58:47.457Z,48.38
2023-04-26T19:01:15.565Z,48.65
2023-04-26T19:03:45.288Z,48.64
2023-04-26T19:06:16.533Z,48.97
2023-04-26T19:08:45.228Z,49.07
2023-04-26T19:11:13.849Z,49.51
2023-04-26T19:13:41.882Z,49.99
2023-04-26T19:16:10.085Z,50.60
2023-04-26T19:18:38.584Z,50.36
2023-04-26T19:21:09.888Z,50.98
2023-04-26T19:23:38.316Z,51.19
2023-04-26T19:26:08.570Z,51.73
2023-04-26T19:28:38.158Z,51.98
2023-04-26T19:31:07.421Z,52.70
2023-04-26T19:33:37.453Z,52.95
2023-04-26T19:36:05.367Z,53.46
2023-04-26T19:38:34.934Z,53.70
2023-04-26T19:41:04.106Z,54.24
2023-04-26T19:43:32.264Z,53.69
2023-04-26T19:46:01.855Z,54.79
2023-04-26T19:48:29.170Z,53.72
2023-04-26T19:50:58.656Z,54.28
2023-04-26T19:53:26.667Z,53.68
2023-04-26T19:55:57.507Z,54.14
2023-04-26T19:58:25.359Z,54.94
2023-04-26T20:00:54.277Z,55.25
2023-04-26T20:03:27.665Z,55.50
2023-04-26T20:05:55.714Z,54.37
2023-04-26T20:08:24.440Z,54.55
2023-04-26T20:10:52.354Z,54.27
2023-04-26T20:13:20.008Z,54.38
2023-04-26T20:15:48.869Z,54.85
2023-04-26T20:18:17.591Z,54.90
2023-04-26T20:20:45.978Z,55.06
2023-04-26T20:23:14.616Z,55.21
2023-04-26T20:25:42.653Z,54.97
2023-04-26T20:28:10.998Z,55.34
2023-04-26T20:30:39.297Z,55.29
2023-04-26T20:33:06.693Z,55.67
2023-04-26T20:35:34.810Z,55.74
2023-04-26T20:38:02.813Z,55.50
2023-04-26T20:40:30.150Z,55.28
2023-04-26T20:42:58.837Z,56.29
2023-04-26T20:45:26.756Z,55.05
2023-04-26T20:47:54.261Z,54.31
2023-04-26T20:50:22.350Z,54.62
2023-04-26T20:52:50.296Z,54.43
2023-04-26T20:55:17.686Z,58.46
2023-04-26T20:57:45.119Z,59.03
2023-04-26T21:00:13.403Z,59.37
2023-04-26T21:02:40.670Z,60.04
2023-04-26T21:05:08.171Z,61.48
2023-04-26T21:07:35.675Z,61.16
2023-04-26T21:10:04.041Z,64.94
2023-04-26T21:12:31.232Z,64.89
2023-04-26T21:14:58.724Z,61.10
2023-04-26T21:17:26.030Z,59.88
2023-04-26T21:19:53.255Z,60.86
2023-04-26T21:22:20.867Z,62.94
2023-04-26T21:24:51.022Z,63.20
2023-04-26T21:27:18.810Z,62.39
2023-04-26T21:29:46.166Z,64.35
2023-04-26T21:32:13.294Z,64.51
2023-04-26T21:34:40.495Z,64.97
2023-04-26T21:37:07.905Z,64.10
2023-04-26T21:39:35.210Z,64.78
2023-04-26T21:42:03.558Z,65.45
2023-04-26T21:44:31.156Z,64.73
2023-04-26T21:46:58.305Z,66.15
2023-04-26T21:49:25.969Z,66.40
2023-04-26T21:51:53.359Z,67.82
2023-04-26T21:54:20.490Z,68.11
2023-04-26T21:56:47.786Z,68.69
2023-04-26T21:59:15.428Z,69.57
2023-04-26T22:01:42.588Z,71.63
2023-04-26T22:04:10.149Z,71.27
2023-04-26T22:06:37.383Z,72.27
2023-04-26T22:09:04.898Z,71.47
2023-04-26T22:11:32.312Z,69.39
2023-04-26T22:13:59.630Z,71.28
2023-04-26T22:16:27.193Z,71.99
2023-04-26T22:18:54.657Z,71.06
2023-04-26T22:21:22.353Z,71.42
2023-04-26T22:23:49.465Z,71.15
2023-04-26T22:26:16.948Z,73.25
2023-04-26T22:28:44.059Z,74.25
2023-04-26T22:31:11.495Z,75.34
2023-04-26T22:33:38.988Z,74.82
2023-04-26T22:36:06.439Z,75.80
2023-04-26T22:38:33.528Z,76.25
2023-04-26T22:41:01.148Z,75.95
2023-04-26T22:43:28.373Z,76.83
2023-04-26T22:45:55.532Z,77.52
2023-04-26T22:48:23.055Z,76.84
2023-04-26T22:50:50.626Z,77.32
2023-04-26T22:53:17.884Z,78.86
2023-04-26T22:55:45.515Z,77.23
2023-04-26T22:58:12.682Z,75.88
2023-04-26T23:00:39.814Z,79.19
2023-04-26T23:03:07.546Z,77.69
2023-04-26T23:05:34.992Z,78.82
2023-04-26T23:08:02.157Z,79.58
2023-04-26T23:10:29.561Z,78.88
2023-04-26T23:12:56.709Z,78.14
2023-04-26T23:15:24.117Z,78.14
2023-04-26T23:17:51.698Z,77.34
2023-04-26T23:20:18.964Z,78.68
2023-04-26T23:22:46.095Z,77.36
2023-04-26T23:25:13.605Z,78.29
2023-04-26T23:27:41.014Z,79.13
2023-04-26T23:30:08.798Z,79.29
2023-04-26T23:32:36.614Z,79.77
2023-04-26T23:35:04.247Z,80.52
2023-04-26T23:37:31.592Z,81.09
2023-04-26T23:39:59.511Z,81.36
2023-04-26T23:42:26.673Z,83.59
2023-04-26T23:44:53.836Z,82.74
2023-04-26T23:47:21.274Z,82.62
2023-04-26T23:49:48.446Z,82.29
2023-04-26T23:52:15.668Z,81.61
2023-04-26T23:54:43.092Z,81.44
2023-04-26T23:57:10.256Z,82.95
2023-04-26T23:59:37.357Z,82.19
